createdAt,value
2017-04-08T00:00:21.640Z,22.62
2017-04-08T00:01:20.151Z,19.93
2017-04-08T00:02:18.655Z,21.82
2017-04-08T00:03:17.302Z,19.92
2017-04-08T00:04:15.894Z,20.83
2017-04-08T00:05:14.423Z,19.40
2017-04-08T00:06:12.958Z,19.77
2017-04-08T00:07:11.499Z,22.97
2017-04-08T00:08:10.043Z,20.42
2017-04-08T00:09:08.664Z,21.83
2017-04-08T00:10:07.311Z,20.75
2017-04-08T00:11:05.827Z,20.85
2017-04-08T00:12:04.436Z,22.72
2017-04-08T00:13:02.970Z,21.05
2017-04-08T00:14:01.482Z,20.92
2017-04-08T00:15:00.054Z,19.93
2017-04-08T00:15:58.778Z,20.62
2017-04-08T00:16:57.335Z,20.65
2017-04-08T00:17:55.883Z,21.78
2017-04-08T00:18:54.386Z,20.60
2017-04-08T00:19:52.907Z,20.08
2017-04-08T00:20:51.462Z,20.97
2017-04-08T00:21:50.082Z,20.97
2017-04-08T00:22:48.649Z,18.08
2017-04-08T00:23:47.194Z,21.08
2017-04-08T00:24:45.750Z,21.27
2017-04-08T00:25:44.228Z,23.18
2017-04-08T00:26:42.791Z,20.85
2017-04-08T00:27:41.303Z,21.75
2017-04-08T00:28:39.864Z,20.12
2017-04-08T00:29:38.478Z,20.73
2017-04-08T00:30:36.974Z,21.07
2017-04-08T00:31:35.599Z,21.90
2017-04-08T00:32:34.218Z,22.27
2017-04-08T00:33:32.816Z,20.90
2017-04-08T00:34:31.315Z,21.45
2017-04-08T00:35:29.803Z,21.80
2017-04-08T00:36:28.358Z,21.38
2017-04-08T00:37:26.934Z,20.88
2017-04-08T00:38:25.472Z,20.65
2017-04-08T00:39:23.995Z,21.23
2017-04-08T00:40:22.522Z,22.20
2017-04-08T00:41:21.044Z,19.53
2017-04-08T00:42:19.660Z,21.57
2017-04-08T00:43:18.183Z,20.08
2017-04-08T00:44:16.761Z,20.32
2017-04-08T00:45:15.275Z,21.80
2017-04-08T00:46:13.936Z,21.20
2017-04-08T00:47:12.473Z,20.75
2017-04-08T00:48:11.046Z,20.37
2017-04-08T00:49:09.520Z,21.63
2017-04-08T00:50:08.023Z,19.83
2017-04-08T00:51:06.570Z,20.23
2017-04-08T00:52:05.103Z,21.65
2017-04-08T00:53:03.683Z,20.82
2017-04-08T00:54:02.212Z,21.68
2017-04-08T00:55:00.879Z,21.50
2017-04-08T00:55:59.444Z,21.48
2017-04-08T00:56:57.936Z,20.73
2017-04-08T00:57:56.447Z,21.52
2017-04-08T00:58:54.941Z,22.45
2017-04-08T00:59:53.436Z,20.50
2017-04-08T01:00:57.239Z,21.95
2017-04-08T01:01:59.941Z,19.65
2017-04-08T01:02:58.503Z,20.70
2017-04-08T01:03:57.056Z,19.82
2017-04-08T01:04:55.618Z,20.92
2017-04-08T01:05:54.124Z,21.98
2017-04-08T01:06:52.623Z,21.32
2017-04-08T01:07:51.131Z,20.57
2017-04-08T01:08:49.732Z,21.50
2017-04-08T01:09:48.303Z,20.12
2017-04-08T01:10:46.811Z,21.13
2017-04-08T01:11:45.358Z,21.92
2017-04-08T01:12:43.967Z,22.38
2017-04-08T01:13:42.475Z,21.05
2017-04-08T01:14:41.083Z,22.13
2017-04-08T01:15:39.595Z,21.78
2017-04-08T01:16:38.087Z,21.25
2017-04-08T01:17:36.651Z,21.80
2017-04-08T01:18:35.352Z,21.27
2017-04-08T01:19:34.491Z,22.55
2017-04-08T01:20:32.995Z,21.32
2017-04-08T01:21:31.523Z,21.28
2017-04-08T01:22:30.051Z,21.77
2017-04-08T01:23:28.596Z,20.62
2017-04-08T01:24:27.118Z,20.38
2017-04-08T01:25:25.721Z,19.73
2017-04-08T01:26:24.235Z,20.15
2017-04-08T01:27:22.706Z,21.67
2017-04-08T01:28:21.367Z,21.85
2017-04-08T01:29:19.963Z,20.55
2017-04-08T01:30:18.512Z,23.33
2017-04-08T01:31:17.050Z,21.98
2017-04-08T01:32:15.572Z,21.35
2017-04-08T01:33:14.090Z,19.93
2017-04-08T01:34:12.746Z,22.22
2017-04-08T01:35:11.315Z,21.65
2017-04-08T01:36:09.917Z,21.40
2017-04-08T01:37:08.499Z,22.28
2017-04-08T01:38:07.004Z,21.98
2017-04-08T01:39:06.291Z,22.48
2017-04-08T01:40:04.823Z,22.23
2017-04-08T01:41:03.352Z,22.12
2017-04-08T01:42:01.938Z,23.22
2017-04-08T01:43:00.440Z,23.28
2017-04-08T01:43:58.931Z,23.27
2017-04-08T01:44:57.491Z,21.78
2017-04-08T01:45:56.015Z,23.00
2017-04-08T01:46:54.631Z,22.90
2017-04-08T01:47:53.156Z,24.05
2017-04-08T01:48:51.899Z,24.08
2017-04-08T01:49:50.427Z,22.87
2017-04-08T01:50:48.970Z,24.25
2017-04-08T01:51:47.486Z,25.08
2017-04-08T01:52:46.061Z,25.68
2017-04-08T01:53:44.581Z,25.32
2017-04-08T01:54:43.091Z,23.72
2017-04-08T01:55:41.690Z,24.77
2017-04-08T01:56:40.252Z,24.35
2017-04-08T01:57:38.807Z,23.32
2017-04-08T01:58:37.394Z,25.68
2017-04-08T01:59:35.909Z,23.70
2017-04-08T02:00:34.508Z,24.98
2017-04-08T02:01:33.060Z,24.28
2017-04-08T02:02:31.946Z,24.57
2017-04-08T02:03:30.583Z,24.18
2017-04-08T02:04:29.087Z,25.97
2017-04-08T02:05:27.630Z,25.92
2017-04-08T02:06:26.138Z,25.17
2017-04-08T02:07:24.710Z,24.47
2017-04-08T02:08:23.262Z,24.00
2017-04-08T02:09:21.758Z,24.42
2017-04-08T02:10:20.259Z,25.12
2017-04-08T02:11:18.837Z,26.20
2017-04-08T02:12:17.393Z,25.03
2017-04-08T02:13:15.891Z,25.23
2017-04-08T02:14:14.371Z,25.82
2017-04-08T02:15:12.931Z,25.10
2017-04-08T02:16:11.486Z,24.57
2017-04-08T02:17:10.029Z,25.52
2017-04-08T02:18:08.662Z,23.65
2017-04-08T02:19:07.322Z,24.85
2017-04-08T02:20:05.908Z,24.47
2017-04-08T02:21:04.571Z,25.87
2017-04-08T02:22:03.094Z,24.57
2017-04-08T02:23:01.624Z,25.40
2017-04-08T02:24:00.211Z,27.07
2017-04-08T02:24:58.979Z,26.17
2017-04-08T02:25:57.504Z,24.65
2017-04-08T02:26:56.019Z,25.18
2017-04-08T02:27:54.510Z,25.45
2017-04-08T02:28:53.070Z,25.25
2017-04-08T02:29:51.583Z,26.12
2017-04-08T02:30:50.106Z,26.62
2017-04-08T02:31:48.635Z,25.47
2017-04-08T02:32:47.150Z,25.83
2017-04-08T02:33:45.651Z,23.25
2017-04-08T02:34:44.184Z,23.97
2017-04-08T02:35:42.671Z,25.28
2017-04-08T02:36:41.161Z,26.37
2017-04-08T02:37:39.668Z,25.25
2017-04-08T02:38:38.188Z,25.85
2017-04-08T02:39:36.697Z,25.30
2017-04-08T02:40:35.270Z,24.50
2017-04-08T02:41:33.788Z,26.97
2017-04-08T02:42:32.268Z,26.27
2017-04-08T02:43:30.766Z,25.08
2017-04-08T02:44:29.335Z,24.93
2017-04-08T02:45:27.844Z,25.87
2017-04-08T02:46:26.339Z,26.22
2017-04-08T02:47:24.844Z,25.12
2017-04-08T02:48:23.435Z,27.47
2017-04-08T02:49:22.080Z,25.17
2017-04-08T02:50:20.582Z,26.23
2017-04-08T02:51:19.076Z,29.02
2017-04-08T02:52:17.571Z,25.10
2017-04-08T02:53:16.111Z,26.78
2017-04-08T02:54:14.771Z,24.65
2017-04-08T02:55:13.299Z,24.93
2017-04-08T02:56:11.843Z,26.52
2017-04-08T02:57:10.389Z,25.43
2017-04-08T02:58:08.941Z,26.25
2017-04-08T02:59:07.446Z,25.00
2017-04-08T03:00:05.967Z,25.35
2017-04-08T03:01:04.466Z,25.95
2017-04-08T03:02:03.007Z,26.45
2017-04-08T03:03:01.526Z,25.82
2017-04-08T03:04:00.374Z,26.58
2017-04-08T03:04:58.898Z,28.62
2017-04-08T03:05:57.402Z,26.87
2017-04-08T03:06:55.902Z,25.67
2017-04-08T03:07:54.439Z,27.03
2017-04-08T03:08:52.971Z,27.95
2017-04-08T03:09:51.466Z,26.73
2017-04-08T03:10:49.951Z,27.12
2017-04-08T03:11:48.442Z,25.62
2017-04-08T03:12:46.948Z,26.17
2017-04-08T03:13:45.533Z,27.18
2017-04-08T03:14:44.047Z,27.08
2017-04-08T03:15:42.563Z,25.68
2017-04-08T03:16:41.100Z,26.90
2017-04-08T03:17:39.615Z,25.82
2017-04-08T03:18:38.114Z,26.87
2017-04-08T03:19:36.633Z,27.43
2017-04-08T03:20:35.200Z,27.37
2017-04-08T03:21:33.698Z,26.53
2017-04-08T03:22:32.244Z,27.28
2017-04-08T03:23:30.728Z,27.05
2017-04-08T03:24:29.325Z,26.48
2017-04-08T03:25:27.836Z,25.03
2017-04-08T03:26:26.332Z,26.72
2017-04-08T03:27:24.830Z,24.37
2017-04-08T03:28:23.439Z,25.67
2017-04-08T03:29:22.123Z,25.90
2017-04-08T03:30:20.626Z,25.48
2017-04-08T03:31:19.130Z,25.27
2017-04-08T03:32:17.630Z,25.67
2017-04-08T03:33:16.136Z,24.80
2017-04-08T03:34:14.702Z,25.40
2017-04-08T03:35:13.195Z,25.63
2017-04-08T03:36:11.686Z,25.60
2017-04-08T03:37:10.236Z,25.98
2017-04-08T03:38:08.740Z,26.62
2017-04-08T03:39:07.229Z,25.92
2017-04-08T03:40:05.951Z,24.05
2017-04-08T03:41:04.467Z,26.05
2017-04-08T03:42:02.996Z,25.97
2017-04-08T03:43:01.499Z,26.63
2017-04-08T03:43:59.999Z,26.38
2017-04-08T03:44:58.476Z,24.67
2017-04-08T03:45:57.005Z,26.58
2017-04-08T03:46:55.591Z,27.57
2017-04-08T03:47:54.120Z,25.60
2017-04-08T03:48:52.609Z,26.02
2017-04-08T03:49:51.178Z,24.90
2017-04-08T03:50:49.822Z,24.47
2017-04-08T03:51:48.301Z,25.52
2017-04-08T03:52:46.829Z,25.97
2017-04-08T03:53:45.327Z,26.10
2017-04-08T03:54:43.840Z,25.83
2017-04-08T03:55:42.441Z,25.62
2017-04-08T03:56:41.024Z,25.58
2017-04-08T03:57:39.703Z,25.10
2017-04-08T03:58:38.322Z,24.62
2017-04-08T03:59:36.932Z,25.52
2017-04-08T04:00:35.486Z,26.35
2017-04-08T04:01:33.971Z,26.35
2017-04-08T04:02:32.544Z,24.58
2017-04-08T04:03:31.048Z,26.92
2017-04-08T04:04:29.555Z,26.27
2017-04-08T04:05:28.079Z,26.85
2017-04-08T04:06:26.668Z,25.12
2017-04-08T04:07:25.155Z,26.07
2017-04-08T04:08:23.699Z,25.68
2017-04-08T04:09:22.216Z,25.82
2017-04-08T04:10:20.741Z,25.32
2017-04-08T04:11:19.239Z,25.22
2017-04-08T04:12:17.759Z,25.42
2017-04-08T04:13:16.310Z,25.67
2017-04-08T04:14:14.956Z,24.50
2017-04-08T04:15:13.468Z,27.28
2017-04-08T04:16:11.975Z,25.97
2017-04-08T04:17:10.513Z,27.45
2017-04-08T04:18:09.039Z,25.38
2017-04-08T04:19:07.578Z,25.48
2017-04-08T04:20:06.089Z,26.67
2017-04-08T04:21:04.577Z,26.57
2017-04-08T04:22:03.079Z,24.93
2017-04-08T04:23:01.655Z,25.72
2017-04-08T04:24:00.155Z,25.80
2017-04-08T04:24:58.659Z,27.58
2017-04-08T04:25:57.187Z,25.47
2017-04-08T04:26:55.783Z,26.58
2017-04-08T04:27:54.403Z,25.20
2017-04-08T04:28:52.904Z,25.13
2017-04-08T04:29:51.567Z,25.97
2017-04-08T04:30:50.060Z,26.52
2017-04-08T04:31:48.571Z,26.98
2017-04-08T04:32:47.192Z,27.35
2017-04-08T04:33:45.692Z,28.05
2017-04-08T04:34:44.225Z,26.90
2017-04-08T04:35:42.714Z,30.27
2017-04-08T04:36:41.272Z,27.15
2017-04-08T04:37:39.771Z,25.15
2017-04-08T04:38:38.282Z,28.83
2017-04-08T04:39:36.779Z,26.38
2017-04-08T04:40:35.391Z,26.30
2017-04-08T04:41:33.939Z,24.75
2017-04-08T04:42:32.419Z,25.73
2017-04-08T04:43:30.990Z,27.32
2017-04-08T04:44:29.599Z,25.33
2017-04-08T04:45:28.136Z,24.05
2017-04-08T04:46:26.723Z,26.25
2017-04-08T04:47:25.269Z,24.53
2017-04-08T04:48:23.767Z,25.92
2017-04-08T04:49:22.271Z,25.10
2017-04-08T04:50:20.848Z,23.52
2017-04-08T04:51:19.363Z,24.53
2017-04-08T04:52:17.874Z,26.75
2017-04-08T04:53:16.466Z,25.52
2017-04-08T04:54:14.955Z,25.28
2017-04-08T04:55:13.459Z,25.08
2017-04-08T04:56:11.894Z,25.52
2017-04-08T04:57:10.414Z,25.52
2017-04-08T04:58:08.899Z,26.18
2017-04-08T04:59:07.439Z,25.77
2017-04-08T05:00:05.932Z,24.40
2017-04-08T05:01:04.454Z,25.42
2017-04-08T05:02:02.979Z,25.02
2017-04-08T05:03:01.483Z,25.25
2017-04-08T05:04:00.005Z,25.48
2017-04-08T05:04:58.616Z,26.22
2017-04-08T05:05:57.161Z,25.88
2017-04-08T05:06:55.649Z,25.85
2017-04-08T05:07:54.143Z,25.85
2017-04-08T05:08:52.687Z,27.15
2017-04-08T05:09:51.272Z,23.48
2017-04-08T05:10:49.762Z,25.35
2017-04-08T05:11:48.251Z,25.12
2017-04-08T05:12:46.774Z,24.33
2017-04-08T05:13:45.367Z,27.13
2017-04-08T05:14:43.876Z,24.83
2017-04-08T05:15:42.350Z,25.70
2017-04-08T05:16:40.842Z,25.65
2017-04-08T05:17:39.411Z,25.37
2017-04-08T05:18:37.958Z,26.52
2017-04-08T05:19:36.529Z,25.35
2017-04-08T05:20:35.082Z,26.80
2017-04-08T05:21:33.677Z,23.53
2017-04-08T05:22:32.226Z,25.20
2017-04-08T05:23:30.882Z,24.45
2017-04-08T05:24:29.372Z,25.60
2017-04-08T05:25:27.924Z,26.22
2017-04-08T05:26:26.452Z,27.03
2017-04-08T05:27:24.952Z,25.77
2017-04-08T05:28:23.603Z,24.80
2017-04-08T05:29:22.151Z,25.85
2017-04-08T05:30:20.707Z,23.78
2017-04-08T05:31:19.242Z,24.52
2017-04-08T05:32:17.739Z,25.05
2017-04-08T05:33:16.329Z,26.62
2017-04-08T05:34:14.820Z,24.27
2017-04-08T05:35:13.352Z,26.10
2017-04-08T05:36:11.889Z,25.53
2017-04-08T05:37:10.439Z,25.22
2017-04-08T05:38:08.934Z,24.78
2017-04-08T05:39:07.459Z,25.27
2017-04-08T05:40:06.039Z,25.17
2017-04-08T05:41:04.540Z,26.70
2017-04-08T05:42:03.087Z,24.78
2017-04-08T05:43:01.755Z,23.83
2017-04-08T05:44:00.336Z,24.38
2017-04-08T05:44:58.879Z,25.73
2017-04-08T05:45:57.425Z,24.58
2017-04-08T05:46:55.916Z,25.60
2017-04-08T05:47:54.398Z,25.20
2017-04-08T05:48:52.976Z,27.32
2017-04-08T05:49:51.475Z,23.47
2017-04-08T05:50:50.023Z,25.83
2017-04-08T05:51:48.679Z,23.80
2017-04-08T05:52:47.523Z,24.47
2017-04-08T05:53:46.023Z,24.37
2017-04-08T05:54:44.552Z,25.98
2017-04-08T05:55:43.050Z,24.77
2017-04-08T05:56:41.550Z,25.18
2017-04-08T05:57:40.040Z,25.88
2017-04-08T05:58:38.556Z,25.95
2017-04-08T05:59:37.048Z,24.80
2017-04-08T06:00:35.564Z,28.43
2017-04-08T06:01:34.116Z,26.05
2017-04-08T06:02:32.683Z,24.82
2017-04-08T06:03:31.196Z,28.10
2017-04-08T06:04:29.679Z,24.87
2017-04-08T06:05:28.227Z,25.15
2017-04-08T06:06:26.892Z,25.48
2017-04-08T06:07:25.555Z,24.65
2017-04-08T06:08:24.135Z,24.23
2017-04-08T06:09:22.635Z,25.08
2017-04-08T06:10:21.119Z,25.98
2017-04-08T06:11:19.619Z,25.07
2017-04-08T06:12:18.126Z,24.47
2017-04-08T06:13:16.634Z,25.07
2017-04-08T06:14:15.223Z,25.63
2017-04-08T06:15:13.805Z,25.03
2017-04-08T06:16:12.368Z,24.48
2017-04-08T06:17:10.874Z,25.38
2017-04-08T06:18:09.388Z,24.98
2017-04-08T06:19:07.901Z,26.52
2017-04-08T06:20:06.426Z,25.00
2017-04-08T06:21:05.014Z,25.32
2017-04-08T06:22:03.639Z,26.85
2017-04-08T06:23:02.214Z,25.85
2017-04-08T06:24:00.751Z,25.32
2017-04-08T06:24:59.278Z,27.75
2017-04-08T06:25:57.791Z,24.05
2017-04-08T06:26:56.430Z,25.62
2017-04-08T06:27:55.006Z,24.20
2017-04-08T06:28:53.551Z,24.38
2017-04-08T06:29:52.064Z,24.63
2017-04-08T06:30:50.623Z,23.37
2017-04-08T06:31:49.162Z,24.32
2017-04-08T06:32:47.789Z,25.20
2017-04-08T06:33:46.442Z,26.18
2017-04-08T06:34:44.955Z,25.60
2017-04-08T06:35:43.568Z,25.25
2017-04-08T06:36:42.182Z,23.90
2017-04-08T06:37:40.731Z,23.45
2017-04-08T06:38:39.276Z,24.45
2017-04-08T06:39:37.799Z,23.82
2017-04-08T06:40:36.378Z,24.00
2017-04-08T06:41:35.279Z,23.63
2017-04-08T06:42:33.815Z,25.40
2017-04-08T06:43:32.419Z,24.98
2017-04-08T06:44:31.032Z,23.82
2017-04-08T06:45:29.535Z,22.78
2017-04-08T06:46:28.036Z,24.18
2017-04-08T06:47:26.546Z,24.20
2017-04-08T06:48:25.175Z,23.53
2017-04-08T06:49:23.695Z,23.70
2017-04-08T06:50:22.215Z,22.88
2017-04-08T06:51:20.791Z,22.92
2017-04-08T06:52:19.328Z,24.23
2017-04-08T06:53:17.846Z,23.65
2017-04-08T06:54:16.356Z,25.28
2017-04-08T06:55:14.864Z,23.23
2017-04-08T06:56:13.382Z,22.87
2017-04-08T06:57:11.975Z,22.82
2017-04-08T06:58:10.627Z,23.57
2017-04-08T06:59:09.277Z,22.13
2017-04-08T07:00:07.847Z,23.80
2017-04-08T07:01:06.389Z,24.23
2017-04-08T07:02:05.058Z,24.55
2017-04-08T07:03:03.690Z,25.38
2017-04-08T07:04:02.347Z,24.45
2017-04-08T07:05:00.955Z,23.55
2017-04-08T07:05:59.535Z,24.67
2017-04-08T07:06:58.051Z,24.12
2017-04-08T07:07:56.552Z,22.45
2017-04-08T07:08:55.043Z,24.13
2017-04-08T07:09:53.606Z,57.23
2017-04-08T07:10:52.107Z,34.35
2017-04-08T07:11:50.676Z,29.68
2017-04-08T07:12:49.243Z,30.95
2017-04-08T07:13:47.747Z,30.70
2017-04-08T07:14:46.293Z,25.37
2017-04-08T07:15:44.827Z,23.17
2017-04-08T07:16:43.379Z,23.55
2017-04-08T07:17:41.859Z,43.30
2017-04-08T07:18:40.362Z,27.88
2017-04-08T07:19:38.941Z,23.25
2017-04-08T07:20:37.497Z,24.73
2017-04-08T07:21:36.127Z,24.58
2017-04-08T07:22:34.651Z,23.83
2017-04-08T07:23:33.250Z,23.60
2017-04-08T07:24:31.827Z,21.73
2017-04-08T07:25:30.386Z,23.57
2017-04-08T07:26:28.925Z,24.40
2017-04-08T07:27:27.428Z,24.87
2017-04-08T07:28:25.947Z,23.28
2017-04-08T07:29:24.498Z,22.67
2017-04-08T07:30:23.178Z,22.47
2017-04-08T07:31:21.715Z,23.68
2017-04-08T07:32:20.292Z,22.73
2017-04-08T07:33:18.799Z,22.90
2017-04-08T07:34:17.322Z,22.57
2017-04-08T07:35:15.843Z,24.93
2017-04-08T07:36:14.395Z,22.98
2017-04-08T07:37:13.053Z,23.23
2017-04-08T07:38:11.630Z,21.98
2017-04-08T07:39:10.174Z,23.50
2017-04-08T07:40:08.709Z,21.15
2017-04-08T07:41:07.239Z,23.63
2017-04-08T07:42:05.811Z,23.15
2017-04-08T07:43:04.343Z,23.20
2017-04-08T07:44:02.862Z,22.35
2017-04-08T07:45:01.364Z,23.25
2017-04-08T07:46:00.378Z,23.00
2017-04-08T07:46:59.102Z,24.47
2017-04-08T07:47:57.627Z,24.82
2017-04-08T07:48:58.289Z,24.05
2017-04-08T07:49:56.823Z,21.85
2017-04-08T07:50:55.377Z,24.28
2017-04-08T07:51:53.895Z,23.33
2017-04-08T07:52:52.434Z,25.93
2017-04-08T07:53:50.979Z,24.30
2017-04-08T07:54:49.524Z,25.65
2017-04-08T07:55:48.037Z,23.17
2017-04-08T07:56:46.580Z,22.98
2017-04-08T07:57:45.138Z,25.57
2017-04-08T07:58:43.656Z,24.87
2017-04-08T07:59:42.148Z,23.68
2017-04-08T08:00:40.709Z,22.62
2017-04-08T08:01:39.251Z,23.82
2017-04-08T08:02:37.790Z,23.68
2017-04-08T08:03:36.307Z,22.37
2017-04-08T08:04:34.785Z,23.07
2017-04-08T08:05:33.320Z,25.28
2017-04-08T08:06:32.116Z,24.28
2017-04-08T08:07:30.671Z,24.77
2017-04-08T08:08:29.265Z,23.18
2017-04-08T08:09:27.835Z,25.40
2017-04-08T08:10:26.527Z,23.38
2017-04-08T08:11:25.183Z,24.30
2017-04-08T08:12:23.803Z,24.78
2017-04-08T08:13:22.454Z,25.48
2017-04-08T08:14:21.204Z,25.28
2017-04-08T08:15:19.838Z,23.45
2017-04-08T08:16:18.428Z,24.67
2017-04-08T08:17:17.127Z,22.67
2017-04-08T08:18:15.719Z,24.28
2017-04-08T08:19:14.266Z,22.25
2017-04-08T08:20:13.001Z,23.83
2017-04-08T08:21:11.654Z,23.45
2017-04-08T08:22:10.262Z,25.70
2017-04-08T08:23:08.895Z,25.83
2017-04-08T08:24:07.406Z,24.75
2017-04-08T08:25:06.123Z,23.35
2017-04-08T08:26:05.279Z,42.77
2017-04-08T08:27:04.620Z,27.58
2017-04-08T08:28:04.879Z,28.77
2017-04-08T08:29:03.917Z,29.95
2017-04-08T08:30:03.365Z,26.13
2017-04-08T08:31:01.999Z,26.30
2017-04-08T08:32:02.030Z,65.55
2017-04-08T08:33:01.180Z,29.85
2017-04-08T08:33:59.756Z,26.65
2017-04-08T08:34:58.323Z,26.57
2017-04-08T08:35:56.921Z,27.15
2017-04-08T08:36:55.786Z,25.85
2017-04-08T08:37:55.004Z,25.52
2017-04-08T08:38:54.398Z,25.52
2017-04-08T08:39:52.939Z,24.02
2017-04-08T08:40:51.490Z,27.05
2017-04-08T08:41:50.174Z,24.18
2017-04-08T08:42:48.770Z,25.47
2017-04-08T08:43:47.810Z,25.30
2017-04-08T08:44:48.984Z,25.43
2017-04-08T08:45:47.567Z,25.57
2017-04-08T08:46:46.174Z,26.95
2017-04-08T08:47:44.728Z,40.67
2017-04-08T08:48:43.287Z,51.18
2017-04-08T08:49:41.883Z,38.13
2017-04-08T08:50:40.407Z,32.00
2017-04-08T08:51:38.980Z,26.42
2017-04-08T08:52:37.608Z,25.10
2017-04-08T08:53:36.310Z,23.68
2017-04-08T08:54:34.892Z,25.48
2017-04-08T08:55:33.604Z,24.53
2017-04-08T08:56:32.188Z,23.33
2017-04-08T08:57:30.739Z,24.38
2017-04-08T08:58:29.322Z,22.70
2017-04-08T08:59:27.867Z,21.90
2017-04-08T09:00:26.368Z,22.78
2017-04-08T09:01:24.916Z,22.27
2017-04-08T09:02:23.487Z,24.50
2017-04-08T09:03:22.248Z,39.23
2017-04-08T09:04:20.831Z,33.77
2017-04-08T09:05:19.442Z,25.52
2017-04-08T09:06:18.079Z,28.17
2017-04-08T09:07:16.647Z,26.55
2017-04-08T09:08:15.416Z,25.47
2017-04-08T09:09:14.022Z,23.58
2017-04-08T09:10:12.666Z,25.73
2017-04-08T09:11:11.248Z,24.95
2017-04-08T09:12:09.919Z,24.72
2017-04-08T09:13:08.688Z,23.72
2017-04-08T09:14:07.240Z,25.42
2017-04-08T09:15:05.849Z,25.93
2017-04-08T09:16:04.510Z,25.32
2017-04-08T09:17:03.092Z,25.50
2017-04-08T09:18:01.660Z,25.83
2017-04-08T09:19:00.391Z,25.20
2017-04-08T09:19:58.911Z,27.27
2017-04-08T09:20:57.534Z,25.45
2017-04-08T09:21:56.160Z,24.17
2017-04-08T09:22:55.043Z,24.28
2017-04-08T09:23:53.807Z,24.00
2017-04-08T09:24:52.384Z,24.93
2017-04-08T09:25:50.984Z,24.98
2017-04-08T09:26:49.593Z,32.35
2017-04-08T09:27:48.292Z,42.03
2017-04-08T09:28:46.903Z,33.00
2017-04-08T09:29:45.499Z,31.05
2017-04-08T09:30:44.097Z,29.05
2017-04-08T09:31:42.741Z,27.92
2017-04-08T09:32:41.311Z,33.20
2017-04-08T09:33:40.006Z,32.78
2017-04-08T09:34:38.555Z,34.50
2017-04-08T09:35:37.163Z,32.80
2017-04-08T09:36:35.763Z,34.40
2017-04-08T09:37:34.260Z,31.43
2017-04-08T09:38:32.901Z,30.92
2017-04-08T09:39:31.518Z,31.65
2017-04-08T09:40:30.221Z,32.27
2017-04-08T09:41:28.827Z,32.08
2017-04-08T09:42:27.408Z,34.43
2017-04-08T09:43:25.987Z,33.80
2017-04-08T09:44:24.550Z,32.43
2017-04-08T09:45:23.180Z,34.25
2017-04-08T09:46:21.720Z,32.77
2017-04-08T09:47:20.249Z,34.15
2017-04-08T09:48:18.832Z,36.50
2017-04-08T09:49:17.483Z,32.73
2017-04-08T09:50:16.104Z,37.57
2017-04-08T09:51:14.650Z,37.95
2017-04-08T09:52:13.187Z,37.20
2017-04-08T09:53:11.802Z,37.03
2017-04-08T09:54:10.375Z,37.08
2017-04-08T09:55:09.039Z,37.53
2017-04-08T09:56:07.652Z,34.62
2017-04-08T09:57:06.435Z,35.33
2017-04-08T09:58:05.037Z,34.25
2017-04-08T09:59:03.786Z,35.25
2017-04-08T10:00:02.429Z,35.13
2017-04-08T10:01:00.990Z,34.65
2017-04-08T10:01:59.521Z,36.33
2017-04-08T10:02:58.203Z,38.55
2017-04-08T10:03:57.162Z,34.88
2017-04-08T10:04:55.800Z,36.97
2017-04-08T10:05:54.403Z,33.35
2017-04-08T10:06:52.960Z,35.08
2017-04-08T10:07:51.755Z,36.37
2017-04-08T10:08:50.409Z,35.62
2017-04-08T10:09:48.988Z,35.42
2017-04-08T10:10:47.559Z,36.12
2017-04-08T10:11:46.129Z,37.55
2017-04-08T10:12:44.683Z,36.68
2017-04-08T10:13:43.211Z,37.37
2017-04-08T10:14:41.727Z,36.30
2017-04-08T10:15:40.525Z,37.90
2017-04-08T10:16:39.243Z,37.82
2017-04-08T10:17:37.848Z,38.53
2017-04-08T10:18:36.488Z,35.95
2017-04-08T10:19:35.119Z,36.20
2017-04-08T10:20:33.774Z,36.57
2017-04-08T10:21:32.445Z,37.70
2017-04-08T10:22:31.064Z,37.97
2017-04-08T10:23:29.778Z,37.92
2017-04-08T10:24:28.496Z,35.12
2017-04-08T10:25:27.332Z,37.48
2017-04-08T10:26:25.856Z,36.48
2017-04-08T10:27:24.419Z,37.25
2017-04-08T10:28:23.040Z,38.55
2017-04-08T10:29:21.593Z,40.43
2017-04-08T10:30:20.139Z,39.53
2017-04-08T10:31:18.675Z,39.93
2017-04-08T10:32:17.237Z,39.23
2017-04-08T10:33:15.792Z,36.18
2017-04-08T10:34:15.759Z,38.38
2017-04-08T10:35:14.380Z,39.62
2017-04-08T10:36:12.962Z,39.90
2017-04-08T10:37:11.551Z,40.23
2017-04-08T10:38:10.109Z,40.35
2017-04-08T10:39:08.651Z,39.55
2017-04-08T10:40:07.194Z,38.37
2017-04-08T10:41:05.803Z,36.55
2017-04-08T10:42:04.375Z,35.98
2017-04-08T10:43:02.964Z,38.13
2017-04-08T10:44:01.491Z,38.18
2017-04-08T10:45:00.034Z,38.10
2017-04-08T10:45:58.559Z,41.08
2017-04-08T10:46:57.084Z,43.97
2017-04-08T10:47:55.693Z,39.73
2017-04-08T10:48:54.275Z,42.08
2017-04-08T10:49:52.800Z,44.17
2017-04-08T10:50:51.327Z,42.23
2017-04-08T10:51:49.939Z,38.48
2017-04-08T10:52:48.471Z,40.78
2017-04-08T10:53:47.086Z,42.37
2017-04-08T10:54:45.643Z,38.43
2017-04-08T10:55:44.298Z,39.00
2017-04-08T10:56:43.429Z,37.92
2017-04-08T10:57:42.402Z,38.92
2017-04-08T10:58:40.987Z,40.10
2017-04-08T10:59:39.691Z,38.72
2017-04-08T11:00:38.324Z,40.57
2017-04-08T11:01:36.887Z,40.22
2017-04-08T11:02:35.522Z,42.73
2017-04-08T11:03:34.124Z,41.97
2017-04-08T11:04:32.647Z,38.80
2017-04-08T11:05:31.180Z,38.20
2017-04-08T11:06:29.827Z,45.87
2017-04-08T11:07:28.343Z,59.65
2017-04-08T11:08:26.917Z,42.72
2017-04-08T11:09:25.466Z,52.43
2017-04-08T11:10:24.003Z,42.32
2017-04-08T11:11:22.679Z,41.65
2017-04-08T11:12:21.391Z,43.92
2017-04-08T11:13:19.966Z,40.52
2017-04-08T11:14:18.512Z,43.03
2017-04-08T11:15:17.071Z,43.05
2017-04-08T11:16:15.681Z,44.27
2017-04-08T11:17:14.250Z,39.67
2017-04-08T11:18:12.778Z,43.48
2017-04-08T11:19:11.307Z,42.08
2017-04-08T11:20:09.859Z,42.63
2017-04-08T11:21:08.379Z,41.37
2017-04-08T11:22:06.880Z,44.55
2017-04-08T11:23:05.508Z,41.80
2017-04-08T11:24:04.087Z,43.28
2017-04-08T11:25:02.796Z,42.13
2017-04-08T11:26:01.456Z,42.72
2017-04-08T11:27:00.024Z,43.28
2017-04-08T11:27:58.615Z,44.58
2017-04-08T11:28:57.131Z,44.17
2017-04-08T11:29:55.706Z,43.72
2017-04-08T11:30:54.280Z,45.65
2017-04-08T11:31:52.895Z,44.63
2017-04-08T11:32:51.412Z,42.37
2017-04-08T11:33:49.927Z,43.35
2017-04-08T11:34:48.433Z,43.65
2017-04-08T11:35:46.983Z,49.00
2017-04-08T11:36:45.518Z,47.42
2017-04-08T11:37:44.438Z,45.57
2017-04-08T11:38:42.983Z,44.92
2017-04-08T11:39:41.491Z,44.32
2017-04-08T11:40:40.123Z,46.07
2017-04-08T11:41:38.751Z,46.20
2017-04-08T11:42:37.351Z,43.27
2017-04-08T11:43:35.870Z,42.43
2017-04-08T11:44:34.570Z,45.50
2017-04-08T11:45:33.319Z,44.33
2017-04-08T11:46:31.912Z,44.77
2017-04-08T11:47:30.483Z,44.85
2017-04-08T11:48:29.019Z,41.15
2017-04-08T11:49:27.572Z,44.05
2017-04-08T11:50:26.526Z,44.37
2017-04-08T11:51:25.154Z,44.92
2017-04-08T11:52:23.683Z,45.33
2017-04-08T11:53:22.280Z,45.57
2017-04-08T11:54:20.943Z,42.25
2017-04-08T11:55:19.551Z,43.57
2017-04-08T11:56:19.318Z,44.45
2017-04-08T11:57:18.074Z,59.48
2017-04-08T11:58:16.651Z,103.23
2017-04-08T11:59:15.200Z,85.80
2017-04-08T12:00:13.952Z,46.30
2017-04-08T12:01:12.584Z,40.18
2017-04-08T12:02:11.124Z,44.70
2017-04-08T12:03:09.881Z,45.75
2017-04-08T12:04:08.532Z,48.50
2017-04-08T12:05:07.212Z,43.15
2017-04-08T12:06:05.808Z,44.25
2017-04-08T12:07:04.427Z,106.12
2017-04-08T12:08:03.067Z,148.60
2017-04-08T12:09:01.567Z,54.23
2017-04-08T12:10:00.121Z,63.72
2017-04-08T12:10:58.647Z,62.23
2017-04-08T12:11:57.162Z,48.58
2017-04-08T12:12:55.682Z,45.65
2017-04-08T12:13:54.295Z,46.90
2017-04-08T12:14:52.811Z,49.68
2017-04-08T12:15:51.387Z,42.68
2017-04-08T12:16:49.950Z,52.32
2017-04-08T12:17:48.528Z,48.30
2017-04-08T12:18:47.027Z,52.55
2017-04-08T12:19:45.707Z,65.58
2017-04-08T12:20:44.221Z,62.22
2017-04-08T12:21:42.763Z,46.37
2017-04-08T12:22:41.276Z,43.48
2017-04-08T12:23:39.790Z,44.28
2017-04-08T12:24:38.291Z,45.57
2017-04-08T12:25:36.855Z,46.13
2017-04-08T12:26:35.451Z,47.52
2017-04-08T12:27:34.076Z,42.78
2017-04-08T12:28:32.637Z,44.39
2017-04-08T12:29:31.149Z,48.77
2017-04-08T12:30:29.783Z,52.61
2017-04-08T12:31:28.551Z,45.00
2017-04-08T12:32:27.069Z,52.83
2017-04-08T12:33:25.764Z,57.51
2017-04-08T12:34:24.568Z,45.23